sensor_id;sensor_type;location;lat;lon;timestamp;pressure;altitude;pressure_sealevel;temperature;humidity
15604;BME280;7902;49.042;9.092;2024-02-21T00:02:20;100113.25;;;11.28;60.57
15604;BME280;7902;49.042;9.092;2024-02-21T00:04:45;100107.19;;;11.12;60.26
15604;BME280;7902;49.042;9.092;2024-02-21T00:07:11;100110.19;;;11.06;60.78
15604;BME280;7902;49.042;9.092;2024-02-21T00:09:37;100105.09;;;11.02;60.51
15604;BME280;7902;49.042;9.092;2024-02-21T00:12:03;100106.44;;;11.10;60.48
15604;BME280;7902;49.042;9.092;2024-02-21T00:14:31;100097.53;;;11.12;60.71
15604;BME280;7902;49.042;9.092;2024-02-21T00:16:57;100093.13;;;11.13;60.31
15604;BME280;7902;49.042;9.092;2024-02-21T00:19:23;100088.63;;;11.15;60.31
15604;BME280;7902;49.042;9.092;2024-02-21T00:21:48;100081.66;;;11.14;60.24
15604;BME280;7902;49.042;9.092;2024-02-21T00:24:14;100070.81;;;11.20;60.23
15604;BME280;7902;49.042;9.092;2024-02-21T00:26:40;100068.72;;;11.11;60.24
15604;BME280;7902;49.042;9.092;2024-02-21T00:29:06;100070.81;;;11.20;61.06
15604;BME280;7902;49.042;9.092;2024-02-21T00:31:32;100064.59;;;11.21;60.96
15604;BME280;7902;49.042;9.092;2024-02-21T00:33:58;100061.03;;;11.22;60.84
15604;BME280;7902;49.042;9.092;2024-02-21T00:36:24;100056.41;;;11.25;60.40
15604;BME280;7902;49.042;9.092;2024-02-21T00:38:50;100053.25;;;11.20;61.00
15604;BME280;7902;49.042;9.092;2024-02-21T00:41:16;100045.81;;;11.13;60.24
15604;BME280;7902;49.042;9.092;2024-02-21T00:43:41;100051.06;;;11.13;61.16
15604;BME280;7902;49.042;9.092;2024-02-21T00:46:08;100042.19;;;11.29;59.98
15604;BME280;7902;49.042;9.092;2024-02-21T00:48:34;100044.13;;;11.26;60.19
15604;BME280;7902;49.042;9.092;2024-02-21T00:51:00;100040.19;;;11.19;60.37
15604;BME280;7902;49.042;9.092;2024-02-21T00:53:25;100037.75;;;11.16;60.71
15604;BME280;7902;49.042;9.092;2024-02-21T00:55:51;100044.09;;;11.12;60.46
15604;BME280;7902;49.042;9.092;2024-02-21T00:58:17;100035.28;;;11.13;60.15
15604;BME280;7902;49.042;9.092;2024-02-21T01:00:43;100028.16;;;11.15;60.09
15604;BME280;7902;49.042;9.092;2024-02-21T01:03:09;100036.22;;;11.26;60.84
15604;BME280;7902;49.042;9.092;2024-02-21T01:05:35;100034.38;;;11.28;60.57
15604;BME280;7902;49.042;9.092;2024-02-21T01:08:01;100025.72;;;11.26;60.04
15604;BME280;7902;49.042;9.092;2024-02-21T01:10:27;100024.78;;;11.27;60.24
15604;BME280;7902;49.042;9.092;2024-02-21T01:12:53;100019.16;;;11.19;61.06
15604;BME280;7902;49.042;9.092;2024-02-21T01:15:19;100019.44;;;11.28;60.84
15604;BME280;7902;49.042;9.092;2024-02-21T01:17:45;100012.75;;;11.23;60.24
15604;BME280;7902;49.042;9.092;2024-02-21T01:20:11;100010.34;;;11.20;59.94
15604;BME280;7902;49.042;9.092;2024-02-21T01:22:37;100010.78;;;11.12;60.44
15604;BME280;7902;49.042;9.092;2024-02-21T01:25:03;100001.69;;;11.18;60.45
15604;BME280;7902;49.042;9.092;2024-02-21T01:27:29;99998.03;;;11.20;60.08
15604;BME280;7902;49.042;9.092;2024-02-21T01:29:54;99992.66;;;11.22;60.77
15604;BME280;7902;49.042;9.092;2024-02-21T01:32:21;99994.44;;;11.21;60.06
15604;BME280;7902;49.042;9.092;2024-02-21T01:34:50;99987.97;;;11.13;60.03
15604;BME280;7902;49.042;9.092;2024-02-21T01:37:16;99994.56;;;11.20;60.79
15604;BME280;7902;49.042;9.092;2024-02-21T01:39:42;99987.13;;;11.12;61.14
15604;BME280;7902;49.042;9.092;2024-02-21T01:42:08;99980.94;;;11.13;61.40
15604;BME280;7902;49.042;9.092;2024-02-21T01:44:34;99986.97;;;11.15;61.01
15604;BME280;7902;49.042;9.092;2024-02-21T01:47:01;99974.66;;;11.16;60.63
15604;BME280;7902;49.042;9.092;2024-02-21T01:49:27;99971.00;;;11.18;60.49
15604;BME280;7902;49.042;9.092;2024-02-21T01:51:53;99967.03;;;11.25;60.65
15604;BME280;7902;49.042;9.092;2024-02-21T01:54:20;99970.50;;;11.26;61.00
15604;BME280;7902;49.042;9.092;2024-02-21T01:56:47;99953.13;;;11.37;60.27
15604;BME280;7902;49.042;9.092;2024-02-21T01:59:14;99952.28;;;11.37;60.86
15604;BME280;7902;49.042;9.092;2024-02-21T02:01:41;99944.41;;;11.37;60.50
15604;BME280;7902;49.042;9.092;2024-02-21T02:04:07;99933.69;;;11.40;61.27
15604;BME280;7902;49.042;9.092;2024-02-21T02:06:34;99928.91;;;11.47;60.31
15604;BME280;7902;49.042;9.092;2024-02-21T02:09:00;99931.16;;;11.38;60.38
15604;BME280;7902;49.042;9.092;2024-02-21T02:11:26;99929.47;;;11.37;60.90
15604;BME280;7902;49.042;9.092;2024-02-21T02:13:52;99932.56;;;11.44;60.54
15604;BME280;7902;49.042;9.092;2024-02-21T02:16:18;99948.63;;;11.39;61.09
15604;BME280;7902;49.042;9.092;2024-02-21T02:18:44;99963.75;;;11.36;61.46
15604;BME280;7902;49.042;9.092;2024-02-21T02:21:37;99967.22;;;11.36;61.31
15604;BME280;7902;49.042;9.092;2024-02-21T02:24:05;99966.94;;;11.27;60.97
15604;BME280;7902;49.042;9.092;2024-02-21T02:26:30;99962.25;;;11.18;61.68
15604;BME280;7902;49.042;9.092;2024-02-21T02:28:57;99974.91;;;11.25;61.52
15604;BME280;7902;49.042;9.092;2024-02-21T02:31:23;99966.38;;;11.22;62.21
15604;BME280;7902;49.042;9.092;2024-02-21T02:33:49;99964.59;;;11.22;61.52
15604;BME280;7902;49.042;9.092;2024-02-21T02:36:15;99934.94;;;11.34;61.71
15604;BME280;7902;49.042;9.092;2024-02-21T02:38:41;99943.47;;;11.24;61.15
15604;BME280;7902;49.042;9.092;2024-02-21T02:41:07;99926.66;;;11.26;62.21
15604;BME280;7902;49.042;9.092;2024-02-21T02:43:33;99929.97;;;11.16;61.69
15604;BME280;7902;49.042;9.092;2024-02-21T02:45:59;99931.56;;;11.18;61.98
15604;BME280;7902;49.042;9.092;2024-02-21T02:48:25;99920.09;;;11.19;62.39
15604;BME280;7902;49.042;9.092;2024-02-21T02:50:50;99918.31;;;11.20;62.36
15604;BME280;7902;49.042;9.092;2024-02-21T02:53:16;99921.13;;;11.17;61.77
15604;BME280;7902;49.042;9.092;2024-02-21T02:55:42;99920.38;;;11.15;62.39
15604;BME280;7902;49.042;9.092;2024-02-21T02:58:08;99918.59;;;11.15;62.35
15604;BME280;7902;49.042;9.092;2024-02-21T03:00:34;99904.72;;;11.13;61.94
15604;BME280;7902;49.042;9.092;2024-02-21T03:03:02;99896.53;;;11.18;61.99
15604;BME280;7902;49.042;9.092;2024-02-21T03:05:31;99898.31;;;11.17;61.99
15604;BME280;7902;49.042;9.092;2024-02-21T03:07:57;99895.25;;;11.11;62.53
15604;BME280;7902;49.042;9.092;2024-02-21T03:10:23;99894.09;;;11.15;62.13
15604;BME280;7902;49.042;9.092;2024-02-21T03:12:48;99886.59;;;11.09;62.46
15604;BME280;7902;49.042;9.092;2024-02-21T03:15:14;99881.97;;;11.12;62.95
15604;BME280;7902;49.042;9.092;2024-02-21T03:17:41;99882.81;;;11.13;62.50
15604;BME280;7902;49.042;9.092;2024-02-21T03:20:07;99876.06;;;11.09;63.11
15604;BME280;7902;49.042;9.092;2024-02-21T03:22:36;99871.19;;;11.02;63.27
15604;BME280;7902;49.042;9.092;2024-02-21T03:25:03;99868.69;;;11.01;62.04
15604;BME280;7902;49.042;9.092;2024-02-21T03:27:29;99862.75;;;10.97;62.79
15604;BME280;7902;49.042;9.092;2024-02-21T03:29:55;99859.84;;;11.02;62.66
15604;BME280;7902;49.042;9.092;2024-02-21T03:32:21;99870.84;;;10.94;63.27
15604;BME280;7902;49.042;9.092;2024-02-21T03:34:47;99874.22;;;10.96;62.41
15604;BME280;7902;49.042;9.092;2024-02-21T03:37:13;99872.69;;;10.92;63.19
15604;BME280;7902;49.042;9.092;2024-02-21T03:39:40;99856.84;;;10.94;62.80
15604;BME280;7902;49.042;9.092;2024-02-21T03:42:06;99850.28;;;11.01;62.99
15604;BME280;7902;49.042;9.092;2024-02-21T03:44:32;99838.94;;;11.00;62.90
15604;BME280;7902;49.042;9.092;2024-02-21T03:47:01;99843.03;;;11.05;62.20
15604;BME280;7902;49.042;9.092;2024-02-21T03:49:27;99840.06;;;10.96;62.37
15604;BME280;7902;49.042;9.092;2024-02-21T03:51:53;99842.19;;;11.04;62.66
15604;BME280;7902;49.042;9.092;2024-02-21T03:54:19;99841.72;;;10.97;62.43
15604;BME280;7902;49.042;9.092;2024-02-21T03:56:45;99836.09;;;11.04;62.04
15604;BME280;7902;49.042;9.092;2024-02-21T03:59:13;99826.25;;;10.93;63.28
15604;BME280;7902;49.042;9.092;2024-02-21T04:01:39;99835.66;;;10.97;62.73
15604;BME280;7902;49.042;9.092;2024-02-21T04:04:05;99834.25;;;10.91;62.27
15604;BME280;7902;49.042;9.092;2024-02-21T04:06:31;99825.50;;;11.05;62.31
15604;BME280;7902;49.042;9.092;2024-02-21T04:08:57;99814.69;;;11.10;61.94
15604;BME280;7902;49.042;9.092;2024-02-21T04:11:23;99792.94;;;10.93;62.34
15604;BME280;7902;49.042;9.092;2024-02-21T04:13:48;99787.31;;;10.99;61.67
15604;BME280;7902;49.042;9.092;2024-02-21T04:16:16;99791.34;;;11.05;61.93
15604;BME280;7902;49.042;9.092;2024-02-21T04:18:42;99811.44;;;10.92;62.02
15604;BME280;7902;49.042;9.092;2024-02-21T04:21:09;99808.91;;;10.90;62.26
15604;BME280;7902;49.042;9.092;2024-02-21T04:23:35;99810.59;;;10.91;62.17
15604;BME280;7902;49.042;9.092;2024-02-21T04:26:01;99812.84;;;10.83;62.31
15604;BME280;7902;49.042;9.092;2024-02-21T04:28:27;99821.47;;;10.85;63.10
15604;BME280;7902;49.042;9.092;2024-02-21T04:30:53;99824.69;;;10.76;62.67
15604;BME280;7902;49.042;9.092;2024-02-21T04:33:18;99809.00;;;10.75;62.28
15604;BME280;7902;49.042;9.092;2024-02-21T04:35:44;99814.66;;;10.69;63.81
15604;BME280;7902;49.042;9.092;2024-02-21T04:38:10;99824.47;;;10.79;62.79
15604;BME280;7902;49.042;9.092;2024-02-21T04:40:36;99823.91;;;10.74;62.83
15604;BME280;7902;49.042;9.092;2024-02-21T04:43:02;99827.88;;;10.67;62.54
15604;BME280;7902;49.042;9.092;2024-02-21T04:45:28;99823.25;;;10.56;63.18
15604;BME280;7902;49.042;9.092;2024-02-21T04:47:54;99821.50;;;10.57;62.68
15604;BME280;7902;49.042;9.092;2024-02-21T04:50:20;99821.00;;;10.50;62.92
15604;BME280;7902;49.042;9.092;2024-02-21T04:52:46;99824.03;;;10.44;63.06
15604;BME280;7902;49.042;9.092;2024-02-21T04:55:12;99817.06;;;10.43;63.13
15604;BME280;7902;49.042;9.092;2024-02-21T04:57:38;99822.41;;;10.42;63.11
15604;BME280;7902;49.042;9.092;2024-02-21T05:00:05;99818.84;;;10.43;63.06
15604;BME280;7902;49.042;9.092;2024-02-21T05:02:31;99800.94;;;10.35;63.74
15604;BME280;7902;49.042;9.092;2024-02-21T05:04:56;99797.38;;;10.36;63.15
15604;BME280;7902;49.042;9.092;2024-02-21T05:07:22;99797.84;;;10.29;64.03
15604;BME280;7902;49.042;9.092;2024-02-21T05:09:48;99802.63;;;10.36;63.17
15604;BME280;7902;49.042;9.092;2024-02-21T05:12:14;99798.22;;;10.37;64.12
15604;BME280;7902;49.042;9.092;2024-02-21T05:14:40;99778.06;;;10.37;63.12
15604;BME280;7902;49.042;9.092;2024-02-21T05:17:06;99771.59;;;10.43;63.82
15604;BME280;7902;49.042;9.092;2024-02-21T05:19:32;99768.22;;;10.41;62.47
15604;BME280;7902;49.042;9.092;2024-02-21T05:21:59;99766.63;;;10.38;62.57
15604;BME280;7902;49.042;9.092;2024-02-21T05:24:25;99752.44;;;10.41;62.90
15604;BME280;7902;49.042;9.092;2024-02-21T05:26:51;99748.44;;;10.35;63.15
15604;BME280;7902;49.042;9.092;2024-02-21T05:29:17;99747.78;;;10.32;63.21
15604;BME280;7902;49.042;9.092;2024-02-21T05:34:19;99745.16;;;10.32;63.44
15604;BME280;7902;49.042;9.092;2024-02-21T05:36:45;99749.53;;;10.31;62.96
15604;BME280;7902;49.042;9.092;2024-02-21T05:39:12;99756.78;;;10.28;63.47
15604;BME280;7902;49.042;9.092;2024-02-21T05:41:38;99747.97;;;10.29;62.90
15604;BME280;7902;49.042;9.092;2024-02-21T05:44:04;99745.81;;;10.21;63.47
15604;BME280;7902;49.042;9.092;2024-02-21T05:46:30;99751.16;;;10.20;62.99
15604;BME280;7902;49.042;9.092;2024-02-21T05:48:55;99740.25;;;10.11;63.03
15604;BME280;7902;49.042;9.092;2024-02-21T05:51:21;99746.72;;;10.06;64.32
15604;BME280;7902;49.042;9.092;2024-02-21T05:53:47;99743.88;;;10.09;63.32
15604;BME280;7902;49.042;9.092;2024-02-21T05:56:14;99737.91;;;10.07;63.50
15604;BME280;7902;49.042;9.092;2024-02-21T05:58:40;99743.78;;;9.96;64.30
15604;BME280;7902;49.042;9.092;2024-02-21T06:01:07;99748.09;;;9.97;63.33
15604;BME280;7902;49.042;9.092;2024-02-21T06:03:33;99752.28;;;9.86;64.35
15604;BME280;7902;49.042;9.092;2024-02-21T06:06:03;99762.72;;;10.01;64.37
15604;BME280;7902;49.042;9.092;2024-02-21T06:08:30;99753.72;;;9.91;63.23
15604;BME280;7902;49.042;9.092;2024-02-21T06:10:56;99743.97;;;9.93;63.73
15604;BME280;7902;49.042;9.092;2024-02-21T06:13:23;99741.53;;;9.90;64.28
15604;BME280;7902;49.042;9.092;2024-02-21T06:15:50;99743.41;;;9.88;63.56
15604;BME280;7902;49.042;9.092;2024-02-21T06:18:20;99751.44;;;9.85;63.32
15604;BME280;7902;49.042;9.092;2024-02-21T06:20:46;99747.13;;;9.84;64.23
15604;BME280;7902;49.042;9.092;2024-02-21T06:23:13;99752.91;;;9.75;63.88
15604;BME280;7902;49.042;9.092;2024-02-21T06:25:39;99749.25;;;9.63;64.29
15604;BME280;7902;49.042;9.092;2024-02-21T06:28:05;99753.09;;;9.72;63.95
15604;BME280;7902;49.042;9.092;2024-02-21T06:30:31;99742.03;;;9.67;64.15
15604;BME280;7902;49.042;9.092;2024-02-21T06:32:57;99741.84;;;9.70;63.62
15604;BME280;7902;49.042;9.092;2024-02-21T06:35:24;99747.09;;;9.70;63.79
15604;BME280;7902;49.042;9.092;2024-02-21T06:37:51;99739.06;;;9.73;63.37
15604;BME280;7902;49.042;9.092;2024-02-21T06:40:19;99725.75;;;9.76;64.22
15604;BME280;7902;49.042;9.092;2024-02-21T06:42:45;99724.53;;;9.67;63.84
15604;BME280;7902;49.042;9.092;2024-02-21T06:45:11;99725.03;;;9.74;64.27
15604;BME280;7902;49.042;9.092;2024-02-21T06:47:37;99728.38;;;9.76;63.50
15604;BME280;7902;49.042;9.092;2024-02-21T06:50:03;99712.09;;;9.85;63.09
15604;BME280;7902;49.042;9.092;2024-02-21T06:52:29;99717.19;;;9.88;63.81
15604;BME280;7902;49.042;9.092;2024-02-21T06:54:55;99715.75;;;9.83;62.98
15604;BME280;7902;49.042;9.092;2024-02-21T06:57:20;99712.75;;;9.89;63.75
15604;BME280;7902;49.042;9.092;2024-02-21T06:59:46;99710.25;;;9.87;63.45
15604;BME280;7902;49.042;9.092;2024-02-21T07:02:12;99702.81;;;9.94;63.73
15604;BME280;7902;49.042;9.092;2024-02-21T07:04:38;99708.00;;;9.95;63.17
15604;BME280;7902;49.042;9.092;2024-02-21T07:07:04;99705.44;;;9.94;63.22
15604;BME280;7902;49.042;9.092;2024-02-21T07:09:30;99702.38;;;10.01;63.71
15604;BME280;7902;49.042;9.092;2024-02-21T07:11:58;99703.88;;;10.05;63.76
15604;BME280;7902;49.042;9.092;2024-02-21T07:14:24;99704.25;;;9.99;62.97
15604;BME280;7902;49.042;9.092;2024-02-21T07:16:51;99693.03;;;10.11;63.19
15604;BME280;7902;49.042;9.092;2024-02-21T07:19:17;99696.56;;;10.10;63.52
15604;BME280;7902;49.042;9.092;2024-02-21T07:21:43;99703.69;;;10.08;62.97
15604;BME280;7902;49.042;9.092;2024-02-21T07:24:09;99712.59;;;10.06;63.70
15604;BME280;7902;49.042;9.092;2024-02-21T07:26:35;99710.25;;;10.01;63.99
15604;BME280;7902;49.042;9.092;2024-02-21T07:29:00;99702.03;;;10.07;63.04
15604;BME280;7902;49.042;9.092;2024-02-21T07:31:26;99713.47;;;10.21;62.96
15604;BME280;7902;49.042;9.092;2024-02-21T07:33:52;99713.75;;;10.16;62.67
15604;BME280;7902;49.042;9.092;2024-02-21T07:36:30;99704.84;;;10.19;63.09
15604;BME280;7902;49.042;9.092;2024-02-21T07:38:56;99692.66;;;10.32;62.48
15604;BME280;7902;49.042;9.092;2024-02-21T07:41:22;99695.09;;;10.35;62.26
15604;BME280;7902;49.042;9.092;2024-02-21T07:43:48;99682.91;;;10.34;62.57
15604;BME280;7902;49.042;9.092;2024-02-21T07:46:14;99680.47;;;10.45;62.49
15604;BME280;7902;49.042;9.092;2024-02-21T07:48:40;99670.31;;;10.53;62.69
15604;BME280;7902;49.042;9.092;2024-02-21T07:51:06;99672.47;;;10.46;62.80
15604;BME280;7902;49.042;9.092;2024-02-21T07:53:32;99671.25;;;10.52;62.27
15604;BME280;7902;49.042;9.092;2024-02-21T07:55:58;99671.44;;;10.49;62.95
15604;BME280;7902;49.042;9.092;2024-02-21T07:58:23;99679.13;;;10.52;63.21
15604;BME280;7902;49.042;9.092;2024-02-21T08:00:49;99676.28;;;10.55;62.29
15604;BME280;7902;49.042;9.092;2024-02-21T08:03:15;99692.75;;;10.44;63.36
15604;BME280;7902;49.042;9.092;2024-02-21T08:05:43;99686.41;;;10.61;62.29
15604;BME280;7902;49.042;9.092;2024-02-21T08:08:09;99677.91;;;10.57;62.41
15604;BME280;7902;49.042;9.092;2024-02-21T08:10:35;99682.06;;;10.74;62.28
15604;BME280;7902;49.042;9.092;2024-02-21T08:13:01;99683.38;;;10.81;62.28
15604;BME280;7902;49.042;9.092;2024-02-21T08:15:27;99677.91;;;10.84;61.39
15604;BME280;7902;49.042;9.092;2024-02-21T08:17:58;99655.81;;;10.74;62.20
15604;BME280;7902;49.042;9.092;2024-02-21T08:20:27;99657.44;;;10.89;60.93
15604;BME280;7902;49.042;9.092;2024-02-21T08:22:53;99660.06;;;10.89;61.13
15604;BME280;7902;49.042;9.092;2024-02-21T08:25:19;99651.91;;;11.07;61.09
15604;BME280;7902;49.042;9.092;2024-02-21T08:27:44;99654.03;;;11.02;60.93
15604;BME280;7902;49.042;9.092;2024-02-21T08:30:11;99653.06;;;11.02;60.74
15604;BME280;7902;49.042;9.092;2024-02-21T08:32:37;99655.81;;;11.01;60.96
15604;BME280;7902;49.042;9.092;2024-02-21T08:35:03;99644.88;;;11.07;60.71
15604;BME280;7902;49.042;9.092;2024-02-21T08:37:30;99637.22;;;11.17;60.88
15604;BME280;7902;49.042;9.092;2024-02-21T08:39:56;99639.69;;;11.20;61.26
15604;BME280;7902;49.042;9.092;2024-02-21T08:42:22;99641.69;;;11.29;60.92
15604;BME280;7902;49.042;9.092;2024-02-21T08:44:49;99636.09;;;11.21;61.96
15604;BME280;7902;49.042;9.092;2024-02-21T08:47:14;99629.50;;;11.28;60.56
15604;BME280;7902;49.042;9.092;2024-02-21T08:49:40;99632.34;;;11.25;60.42
15604;BME280;7902;49.042;9.092;2024-02-21T08:52:06;99635.38;;;11.31;60.41
15604;BME280;7902;49.042;9.092;2024-02-21T08:54:32;99641.47;;;11.32;60.79
15604;BME280;7902;49.042;9.092;2024-02-21T08:56:59;99633.19;;;11.38;60.17
15604;BME280;7902;49.042;9.092;2024-02-21T08:59:25;99627.53;;;11.44;60.11
15604;BME280;7902;49.042;9.092;2024-02-21T09:01:52;99617.00;;;11.44;60.03
15604;BME280;7902;49.042;9.092;2024-02-21T09:04:20;99624.25;;;11.40;60.16
15604;BME280;7902;49.042;9.092;2024-02-21T09:06:46;99621.19;;;11.47;60.76
15604;BME280;7902;49.042;9.092;2024-02-21T09:09:12;99621.19;;;11.47;60.70
15604;BME280;7902;49.042;9.092;2024-02-21T09:11:38;99618.47;;;11.48;60.53
15604;BME280;7902;49.042;9.092;2024-02-21T09:14:05;99618.88;;;11.42;60.76
15604;BME280;7902;49.042;9.092;2024-02-21T09:16:32;99624.16;;;11.42;59.99
15604;BME280;7902;49.042;9.092;2024-02-21T09:18:58;99616.25;;;11.55;60.23
15604;BME280;7902;49.042;9.092;2024-02-21T09:21:24;99614.06;;;11.61;59.65
15604;BME280;7902;49.042;9.092;2024-02-21T09:23:50;99607.84;;;11.50;60.28
15604;BME280;7902;49.042;9.092;2024-02-21T09:26:16;99606.06;;;11.50;60.41
15604;BME280;7902;49.042;9.092;2024-02-21T09:28:43;99605.88;;;11.53;59.49
15604;BME280;7902;49.042;9.092;2024-02-21T09:31:09;99605.22;;;11.62;59.88
15604;BME280;7902;49.042;9.092;2024-02-21T09:33:35;99604.78;;;11.68;60.30
15604;BME280;7902;49.042;9.092;2024-02-21T09:36:03;99601.84;;;11.60;59.76
15604;BME280;7902;49.042;9.092;2024-02-21T09:38:31;99598.81;;;11.66;59.70
15604;BME280;7902;49.042;9.092;2024-02-21T09:43:45;99592.69;;;11.66;60.36
15604;BME280;7902;49.042;9.092;2024-02-21T09:46:18;99580.91;;;11.71;60.22
15604;BME280;7902;49.042;9.092;2024-02-21T09:51:53;99574.50;;;11.50;60.97
15604;BME280;7902;49.042;9.092;2024-02-21T09:54:20;99580.09;;;11.58;60.63
15604;BME280;7902;49.042;9.092;2024-02-21T09:56:47;99577.75;;;11.66;60.22
15604;BME280;7902;49.042;9.092;2024-02-21T09:59:16;99578.84;;;11.76;60.63
15604;BME280;7902;49.042;9.092;2024-02-21T10:01:45;99570.06;;;11.63;60.93
15604;BME280;7902;49.042;9.092;2024-02-21T10:04:12;99564.53;;;11.80;60.30
15604;BME280;7902;49.042;9.092;2024-02-21T10:06:38;99560.44;;;11.76;60.11
15604;BME280;7902;49.042;9.092;2024-02-21T10:09:07;99561.56;;;11.60;60.67
15604;BME280;7902;49.042;9.092;2024-02-21T10:11:33;99558.59;;;11.64;61.55
15604;BME280;7902;49.042;9.092;2024-02-21T10:14:06;99551.22;;;11.69;60.95
15604;BME280;7902;49.042;9.092;2024-02-21T10:16:32;99550.19;;;11.84;60.84
15604;BME280;7902;49.042;9.092;2024-02-21T10:18:59;99545.56;;;11.63;60.74
15604;BME280;7902;49.042;9.092;2024-02-21T10:21:25;99540.31;;;11.63;60.92
15604;BME280;7902;49.042;9.092;2024-02-21T10:23:51;99536.75;;;11.76;60.90
15604;BME280;7902;49.042;9.092;2024-02-21T10:26:18;99525.56;;;11.85;60.12
15604;BME280;7902;49.042;9.092;2024-02-21T10:28:45;99531.47;;;11.76;61.01
15604;BME280;7902;49.042;9.092;2024-02-21T10:31:26;99530.31;;;11.80;60.66
15604;BME280;7902;49.042;9.092;2024-02-21T10:34:00;99526.22;;;11.76;60.86
15604;BME280;7902;49.042;9.092;2024-02-21T10:36:28;99527.97;;;11.88;60.55
15604;BME280;7902;49.042;9.092;2024-02-21T10:38:55;99522.28;;;11.95;60.59
15604;BME280;7902;49.042;9.092;2024-02-21T10:41:22;99523.97;;;11.96;59.66
15604;BME280;7902;49.042;9.092;2024-02-21T10:43:51;99518.56;;;12.10;59.65
15604;BME280;7902;49.042;9.092;2024-02-21T10:46:22;99512.78;;;12.05;60.31
15604;BME280;7902;49.042;9.092;2024-02-21T10:49:01;99507.34;;;11.82;60.58
15604;BME280;7902;49.042;9.092;2024-02-21T10:51:31;99497.19;;;12.02;60.18
15604;BME280;7902;49.042;9.092;2024-02-21T10:54:08;99504.56;;;12.09;59.96
15604;BME280;7902;49.042;9.092;2024-02-21T10:56:38;99494.41;;;12.16;58.99
15604;BME280;7902;49.042;9.092;2024-02-21T10:59:06;99491.31;;;11.98;60.70
15604;BME280;7902;49.042;9.092;2024-02-21T11:01:32;99487.59;;;12.13;59.51
15604;BME280;7902;49.042;9.092;2024-02-21T11:04:19;99480.03;;;11.96;60.54
15604;BME280;7902;49.042;9.092;2024-02-21T11:06:45;99474.25;;;12.04;60.77
15604;BME280;7902;49.042;9.092;2024-02-21T11:09:12;99469.53;;;11.96;60.54
15604;BME280;7902;49.042;9.092;2024-02-21T11:11:43;99464.94;;;12.11;60.48
15604;BME280;7902;49.042;9.092;2024-02-21T11:14:20;99464.16;;;12.21;60.06
15604;BME280;7902;49.042;9.092;2024-02-21T11:16:46;99456.19;;;12.10;59.95
15604;BME280;7902;49.042;9.092;2024-02-21T11:19:20;99455.81;;;12.04;60.64
15604;BME280;7902;49.042;9.092;2024-02-21T11:21:47;99448.97;;;12.01;60.47
15604;BME280;7902;49.042;9.092;2024-02-21T11:24:29;99441.25;;;12.11;60.43
15604;BME280;7902;49.042;9.092;2024-02-21T11:26:57;99434.31;;;12.10;60.38
15604;BME280;7902;49.042;9.092;2024-02-21T11:29:33;99427.81;;;12.03;60.57
15604;BME280;7902;49.042;9.092;2024-02-21T11:32:02;99423.72;;;12.22;60.74
15604;BME280;7902;49.042;9.092;2024-02-21T11:34:28;99414.59;;;12.15;60.51
15604;BME280;7902;49.042;9.092;2024-02-21T11:36:54;99412.78;;;12.16;60.68
15604;BME280;7902;49.042;9.092;2024-02-21T11:39:20;99410.47;;;12.35;60.29
15604;BME280;7902;49.042;9.092;2024-02-21T11:41:58;99397.63;;;12.19;60.34
15604;BME280;7902;49.042;9.092;2024-02-21T11:44:24;99397.06;;;12.27;60.63
15604;BME280;7902;49.042;9.092;2024-02-21T11:46:50;99396.06;;;12.17;60.43
15604;BME280;7902;49.042;9.092;2024-02-21T11:49:16;99385.34;;;12.31;60.32
15604;BME280;7902;49.042;9.092;2024-02-21T11:51:42;99387.22;;;12.18;60.56
15604;BME280;7902;49.042;9.092;2024-02-21T11:54:08;99377.63;;;12.17;60.46
15604;BME280;7902;49.042;9.092;2024-02-21T11:56:35;99380.06;;;12.31;60.75
15604;BME280;7902;49.042;9.092;2024-02-21T11:59:00;99367.28;;;12.49;59.82
15604;BME280;7902;49.042;9.092;2024-02-21T12:01:27;99364.81;;;12.47;59.52
15604;BME280;7902;49.042;9.092;2024-02-21T12:03:53;99357.75;;;12.59;58.36
15604;BME280;7902;49.042;9.092;2024-02-21T12:06:19;99350.56;;;12.61;59.09
15604;BME280;7902;49.042;9.092;2024-02-21T12:08:47;99344.59;;;12.70;58.22
15604;BME280;7902;49.042;9.092;2024-02-21T12:13:42;99337.88;;;12.77;57.73
15604;BME280;7902;49.042;9.092;2024-02-21T12:16:08;99324.34;;;12.70;59.17
15604;BME280;7902;49.042;9.092;2024-02-21T12:18:34;99322.28;;;12.63;59.04
15604;BME280;7902;49.042;9.092;2024-02-21T12:21:00;99315.34;;;12.62;59.65
15604;BME280;7902;49.042;9.092;2024-02-21T12:23:27;99307.59;;;12.60;59.20
15604;BME280;7902;49.042;9.092;2024-02-21T12:25:53;99308.19;;;12.64;59.10
15604;BME280;7902;49.042;9.092;2024-02-21T12:28:21;99309.97;;;12.86;58.28
15604;BME280;7902;49.042;9.092;2024-02-21T12:30:47;99299.44;;;12.74;58.74
15604;BME280;7902;49.042;9.092;2024-02-21T12:33:13;99297.03;;;12.60;59.48
15604;BME280;7902;49.042;9.092;2024-02-21T12:35:42;99293.59;;;12.71;59.11
15604;BME280;7902;49.042;9.092;2024-02-21T12:38:08;99280.41;;;12.60;59.34
15604;BME280;7902;49.042;9.092;2024-02-21T12:40:34;99279.31;;;12.73;58.69
15604;BME280;7902;49.042;9.092;2024-02-21T12:43:01;99274.66;;;12.66;59.24
15604;BME280;7902;49.042;9.092;2024-02-21T12:45:30;99262.53;;;12.86;58.86
15604;BME280;7902;49.042;9.092;2024-02-21T12:47:56;99265.91;;;12.65;59.48
15604;BME280;7902;49.042;9.092;2024-02-21T12:50:22;99257.72;;;12.91;57.21
15604;BME280;7902;49.042;9.092;2024-02-21T12:52:48;99258.94;;;12.98;56.65
15604;BME280;7902;49.042;9.092;2024-02-21T12:55:15;99253.41;;;13.01;57.46
15604;BME280;7902;49.042;9.092;2024-02-21T12:57:42;99239.78;;;12.73;59.03
15604;BME280;7902;49.042;9.092;2024-02-21T13:00:08;99246.59;;;12.76;59.33
15604;BME280;7902;49.042;9.092;2024-02-21T13:02:35;99235.81;;;12.90;58.18
15604;BME280;7902;49.042;9.092;2024-02-21T13:05:01;99239.91;;;12.83;58.87
15604;BME280;7902;49.042;9.092;2024-02-21T13:07:28;99227.69;;;12.82;58.33
15604;BME280;7902;49.042;9.092;2024-02-21T13:09:54;99216.75;;;12.98;57.95
15604;BME280;7902;49.042;9.092;2024-02-21T13:12:20;99215.19;;;13.06;57.08
15604;BME280;7902;49.042;9.092;2024-02-21T13:14:46;99214.13;;;12.98;58.22
15604;BME280;7902;49.042;9.092;2024-02-21T13:17:12;99217.50;;;12.89;58.77
15604;BME280;7902;49.042;9.092;2024-02-21T13:19:40;99204.69;;;12.84;59.22